Terminal Aerodrome Forecast
Issued by NWS

Current Version | Previous Version | Text Only | Print | Product List | Glossary On
Versions: 1 2 3 4 5 6 7 8 9 10 11 12 13 14 15 16 17 18 19 20 21 22 23 24 25 26 27 28 29 30 31 32 33 34 35 36 37 38 39 40 41 42 43 44 45 46 47 48 49 50
688
FTUS43 KMKX 201727
TAFENW
TAF
KENW 201727Z 2018/2118 09005KT 3/4SM BR OVC002
     FM210300 13004KT 1/2SM -DZ FG OVC003
     FM210600 VRB03KT 1/4SM -DZ FG OVC003
     FM211500 16006KT 3/4SM -DZ BR OVC003
     FM211600 16007KT 2SM -DZ BR OVC010
     FM211700 16008KT 4SM -DZ BR OVC020=

USA.gov is the U.S. government's official web portal to all federal, state and local government web resources and services.